createdAt,value
2017-12-10T00:00:38.991Z,1000.35
2017-12-10T00:01:39.015Z,1000.39
2017-12-10T00:02:39.023Z,1000.38
2017-12-10T00:03:39.027Z,1000.29
2017-12-10T00:04:39.048Z,1000.28
2017-12-10T00:05:39.069Z,1000.33
2017-12-10T00:06:39.070Z,1000.28
2017-12-10T00:07:39.089Z,1000.26
2017-12-10T00:08:39.110Z,1000.3
2017-12-10T00:09:39.125Z,1000.28
2017-12-10T00:10:39.139Z,1000.24
2017-12-10T00:11:39.144Z,1000.23
2017-12-10T00:13:39.183Z,1000.14
2017-12-10T00:14:39.192Z,1000.11
2017-12-10T00:15:39.208Z,1000.2
2017-12-10T00:16:39.216Z,1000.18
2017-12-10T00:17:39.230Z,1000.17
2017-12-10T00:18:39.254Z,1000.18
2017-12-10T00:19:39.269Z,1000.14
2017-12-10T00:20:39.280Z,1000.05
2017-12-10T00:21:39.293Z,1000.12
2017-12-10T00:22:39.310Z,1000.18
2017-12-10T00:23:39.325Z,1000.17
2017-12-10T00:24:39.333Z,1000.11
2017-12-10T00:25:39.351Z,1000.1
2017-12-10T00:26:39.371Z,1000.12
2017-12-10T00:27:39.376Z,1000.07
2017-12-10T00:29:39.415Z,1000.08
2017-12-10T00:30:39.423Z,1000.09
2017-12-10T00:31:39.438Z,1000.13
2017-12-10T00:32:39.544Z,1000.03
2017-12-10T00:33:39.462Z,1000.03
2017-12-10T00:34:39.481Z,999.98
2017-12-10T00:35:39.498Z,1000.14
2017-12-10T00:36:39.511Z,1000.16
2017-12-10T00:37:39.524Z,1000.11
2017-12-10T00:38:39.539Z,1000.13
2017-12-10T00:39:39.553Z,1000.14
2017-12-10T00:40:39.570Z,1000.08
2017-12-10T00:41:39.578Z,1000.11
2017-12-10T00:42:39.602Z,1000.09
2017-12-10T00:43:39.607Z,1000.12
2017-12-10T00:45:39.642Z,1000.07
2017-12-10T00:46:39.651Z,1000.09
2017-12-10T00:47:39.665Z,1000.14
2017-12-10T00:48:39.686Z,1000.13
2017-12-10T00:49:39.698Z,1000.11
2017-12-10T00:50:39.712Z,1000.18
2017-12-10T00:51:39.727Z,1000.17
2017-12-10T00:52:39.745Z,1000.06
2017-12-10T00:53:39.756Z,1000.14
2017-12-10T00:54:39.770Z,1000.09
2017-12-10T00:55:39.780Z,1000.11
2017-12-10T00:56:39.795Z,1000.13
2017-12-10T00:57:39.809Z,1000.13
2017-12-10T00:58:39.825Z,1000.12
2017-12-10T01:00:39.853Z,1000.1
2017-12-10T01:01:39.873Z,1000.05
2017-12-10T01:02:39.891Z,1000.09
2017-12-10T01:03:39.904Z,1000.02
2017-12-10T01:04:39.923Z,999.96
2017-12-10T01:05:39.936Z,1000.02
2017-12-10T01:06:39.946Z,1000.05
2017-12-10T01:07:39.956Z,1000
2017-12-10T01:08:39.973Z,1000.03
2017-12-10T01:09:39.987Z,1000.01
2017-12-10T01:10:40.008Z,1000.07
2017-12-10T01:11:40.024Z,1000.01
2017-12-10T01:12:40.031Z,1000.01
2017-12-10T01:13:40.047Z,1000.03
2017-12-10T01:14:40.062Z,1000.01
2017-12-10T01:15:40.076Z,1000.04
2017-12-10T01:16:40.094Z,1000.04
2017-12-10T01:17:40.099Z,1000
2017-12-10T01:18:40.122Z,1000.01
2017-12-10T01:19:40.130Z,1000
2017-12-10T01:20:40.153Z,999.94
2017-12-10T01:21:40.166Z,999.94
2017-12-10T01:22:40.171Z,999.94
2017-12-10T01:23:40.187Z,999.93
2017-12-10T01:24:40.199Z,999.93
2017-12-10T01:25:40.215Z,999.96
2017-12-10T01:26:40.228Z,999.94
2017-12-10T01:27:40.241Z,999.9
2017-12-10T01:28:40.266Z,999.97
2017-12-10T01:29:40.280Z,999.9
2017-12-10T01:30:40.294Z,999.95
2017-12-10T01:32:40.317Z,999.91
2017-12-10T01:33:40.333Z,999.79
2017-12-10T01:34:40.353Z,999.77
2017-12-10T01:35:40.364Z,999.75
2017-12-10T01:36:40.374Z,999.71
2017-12-10T01:37:40.391Z,999.67
2017-12-10T01:38:40.409Z,999.6
2017-12-10T01:39:40.423Z,999.67
2017-12-10T01:40:40.434Z,999.66
2017-12-10T01:41:40.445Z,999.68
2017-12-10T01:42:40.464Z,999.75
2017-12-10T01:43:40.481Z,999.65
2017-12-10T01:44:40.497Z,999.72
2017-12-10T01:45:40.502Z,999.73
2017-12-10T01:46:40.523Z,999.74
2017-12-10T01:48:40.551Z,999.66
2017-12-10T01:49:40.565Z,999.7
2017-12-10T01:50:40.579Z,999.72
2017-12-10T01:51:40.588Z,999.7
2017-12-10T01:52:40.597Z,999.72
2017-12-10T01:53:40.618Z,999.63
2017-12-10T01:54:40.627Z,999.64
2017-12-10T01:55:40.646Z,999.62
2017-12-10T01:56:40.659Z,999.66
2017-12-10T01:57:40.675Z,999.62
2017-12-10T01:58:40.691Z,999.59
2017-12-10T01:59:40.702Z,999.65
2017-12-10T02:00:40.721Z,999.5
2017-12-10T02:01:40.738Z,999.56
2017-12-10T02:02:40.744Z,999.58
2017-12-10T02:04:40.778Z,999.57
2017-12-10T02:05:40.796Z,999.57
2017-12-10T02:06:40.796Z,999.55
2017-12-10T02:07:40.816Z,999.55
2017-12-10T02:08:40.831Z,999.56
2017-12-10T02:09:40.850Z,999.49
2017-12-10T02:10:40.861Z,999.53
2017-12-10T02:11:40.873Z,999.57
2017-12-10T02:12:40.888Z,999.49
2017-12-10T02:13:40.902Z,999.44
2017-12-10T02:14:40.914Z,999.52
2017-12-10T02:15:40.924Z,999.5
2017-12-10T02:16:40.945Z,999.45
2017-12-10T02:17:40.959Z,999.54
2017-12-10T02:18:40.970Z,999.46
2017-12-10T02:20:40.999Z,999.43
2017-12-10T02:21:41.015Z,999.46
2017-12-10T02:22:41.029Z,999.41
2017-12-10T02:23:41.042Z,999.42
2017-12-10T02:24:41.061Z,999.41
2017-12-10T02:25:41.070Z,999.37
2017-12-10T02:26:41.090Z,999.29
2017-12-10T02:27:41.098Z,999.16
2017-12-10T02:28:41.118Z,999.3
2017-12-10T02:29:41.129Z,999.28
2017-12-10T02:30:41.136Z,999.3
2017-12-10T02:31:41.156Z,999.2
2017-12-10T02:32:41.170Z,999.21
2017-12-10T02:33:41.180Z,999.21
2017-12-10T02:35:41.217Z,999.26
2017-12-10T02:36:41.228Z,999.17
2017-12-10T02:37:41.242Z,999.15
2017-12-10T02:38:41.255Z,999.13
2017-12-10T02:39:41.275Z,999.11
2017-12-10T02:40:41.278Z,999.2
2017-12-10T02:41:41.292Z,999.15
2017-12-10T02:42:41.313Z,999.09
2017-12-10T02:43:41.327Z,999.13
2017-12-10T02:44:41.339Z,999.01
2017-12-10T02:45:41.356Z,998.97
2017-12-10T02:46:41.367Z,998.97
2017-12-10T02:47:41.388Z,998.97
2017-12-10T02:48:41.398Z,998.95
2017-12-10T02:49:41.415Z,998.88
2017-12-10T02:50:41.426Z,998.97
2017-12-10T02:51:41.438Z,998.91
2017-12-10T02:52:41.458Z,998.91
2017-12-10T02:53:41.466Z,998.89
2017-12-10T02:54:41.475Z,998.84
2017-12-10T02:55:41.500Z,998.83
2017-12-10T02:56:41.515Z,998.78
2017-12-10T02:57:41.522Z,998.78
2017-12-10T02:58:41.532Z,998.77
2017-12-10T02:59:41.551Z,998.8
2017-12-10T03:00:41.565Z,998.78
2017-12-10T03:01:41.581Z,998.75
2017-12-10T03:02:41.595Z,998.7
2017-12-10T03:03:41.604Z,998.69
2017-12-10T03:04:41.624Z,998.65
2017-12-10T03:05:41.635Z,998.63
2017-12-10T03:07:41.665Z,998.57
2017-12-10T03:08:41.684Z,998.63
2017-12-10T03:09:41.686Z,998.63
2017-12-10T03:10:41.707Z,998.52
2017-12-10T03:11:41.721Z,998.53
2017-12-10T03:12:41.742Z,998.55
2017-12-10T03:13:41.742Z,998.52
2017-12-10T03:14:41.761Z,998.54
2017-12-10T03:15:41.783Z,998.56
2017-12-10T03:16:41.795Z,998.55
2017-12-10T03:17:41.809Z,998.61
2017-12-10T03:18:41.827Z,998.52
2017-12-10T03:19:41.832Z,998.52
2017-12-10T03:20:41.851Z,998.54
2017-12-10T03:21:41.854Z,998.52
2017-12-10T03:23:41.889Z,998.58
2017-12-10T03:24:41.903Z,998.54
2017-12-10T03:25:41.917Z,998.56
2017-12-10T03:26:41.932Z,998.51
2017-12-10T03:27:41.948Z,998.54
2017-12-10T03:28:41.958Z,998.62
2017-12-10T03:29:41.968Z,998.56
2017-12-10T03:30:41.981Z,998.65
2017-12-10T03:31:42.000Z,998.58
2017-12-10T03:32:42.074Z,998.57
2017-12-10T03:33:42.032Z,998.54
2017-12-10T03:34:42.036Z,998.48
2017-12-10T03:35:42.055Z,998.45
2017-12-10T03:36:42.072Z,998.43
2017-12-10T03:37:42.087Z,998.47
2017-12-10T03:39:42.105Z,998.42
2017-12-10T03:40:42.119Z,998.37
2017-12-10T03:41:42.140Z,998.49
2017-12-10T03:42:42.160Z,998.43
2017-12-10T03:43:42.169Z,998.38
2017-12-10T03:44:42.179Z,998.45
2017-12-10T03:45:42.188Z,998.36
2017-12-10T03:46:42.205Z,998.36
2017-12-10T03:47:42.215Z,998.37
2017-12-10T03:48:42.240Z,998.3
2017-12-10T03:49:42.246Z,998.32
2017-12-10T03:50:42.267Z,998.22
2017-12-10T03:51:42.275Z,998.27
2017-12-10T03:52:42.290Z,998.23
2017-12-10T03:53:42.304Z,998.24
2017-12-10T03:55:42.336Z,998.17
2017-12-10T03:56:42.347Z,998.17
2017-12-10T03:57:42.360Z,998.15
2017-12-10T03:58:42.378Z,998.14
2017-12-10T03:59:42.391Z,998.17
2017-12-10T04:00:42.404Z,998.21
2017-12-10T04:01:42.418Z,998.17
2017-12-10T04:02:42.428Z,998.15
2017-12-10T04:03:42.447Z,998.13
2017-12-10T04:04:42.455Z,998.07
2017-12-10T04:05:42.470Z,998.16
2017-12-10T04:06:42.478Z,998.1
2017-12-10T04:07:42.499Z,998.09
2017-12-10T04:08:42.516Z,998.05
2017-12-10T04:10:42.538Z,998.05
2017-12-10T04:11:42.559Z,998.02
2017-12-10T04:12:42.561Z,998.06
2017-12-10T04:13:42.585Z,997.99
2017-12-10T04:14:42.600Z,998.05
2017-12-10T04:15:42.612Z,997.98
2017-12-10T04:16:42.622Z,998
2017-12-10T04:17:42.640Z,998.04
2017-12-10T04:18:42.653Z,998.04
2017-12-10T04:19:42.669Z,997.94
2017-12-10T04:20:42.677Z,998.03
2017-12-10T04:21:42.689Z,997.95
2017-12-10T04:22:42.706Z,998.02
2017-12-10T04:23:42.718Z,997.99
2017-12-10T04:24:42.732Z,998
2017-12-10T04:25:42.740Z,998
2017-12-10T04:26:42.763Z,998
2017-12-10T04:27:42.775Z,997.98
2017-12-10T04:28:42.785Z,997.98
2017-12-10T04:29:42.800Z,998.05
2017-12-10T04:30:42.819Z,998.06
2017-12-10T04:31:42.826Z,997.99
2017-12-10T04:32:42.840Z,998.06
2017-12-10T04:33:42.853Z,998.07
2017-12-10T04:34:42.865Z,998.08
2017-12-10T04:35:42.889Z,998.01
2017-12-10T04:36:42.894Z,997.94
2017-12-10T04:37:42.914Z,997.99
2017-12-10T04:38:42.928Z,997.97
2017-12-10T04:39:42.937Z,997.93
2017-12-10T04:40:42.948Z,997.97
2017-12-10T04:42:42.981Z,997.88
2017-12-10T04:43:42.985Z,997.91
2017-12-10T04:44:42.998Z,997.94
2017-12-10T04:45:43.016Z,997.95
2017-12-10T04:46:43.030Z,997.91
2017-12-10T04:47:43.040Z,997.83
2017-12-10T04:48:43.052Z,997.85
2017-12-10T04:49:43.067Z,997.89
2017-12-10T04:50:43.091Z,997.87
2017-12-10T04:51:43.098Z,997.85
2017-12-10T04:52:43.115Z,997.76
2017-12-10T04:53:43.127Z,997.82
2017-12-10T04:54:43.135Z,997.76
2017-12-10T04:55:43.147Z,997.75
2017-12-10T04:56:43.166Z,997.68
2017-12-10T04:58:43.189Z,997.78
2017-12-10T04:59:43.208Z,997.72
2017-12-10T05:00:43.226Z,997.72
2017-12-10T05:01:43.235Z,997.69
2017-12-10T05:02:43.243Z,997.78
2017-12-10T05:03:43.263Z,997.71
2017-12-10T05:04:43.276Z,997.66
2017-12-10T05:05:43.291Z,997.65
2017-12-10T05:06:43.302Z,997.7
2017-12-10T05:07:43.322Z,997.59
2017-12-10T05:08:43.330Z,997.63
2017-12-10T05:09:43.349Z,997.62
2017-12-10T05:10:43.358Z,997.58
2017-12-10T05:11:43.373Z,997.61
2017-12-10T05:12:43.384Z,997.65
2017-12-10T05:14:43.417Z,997.56
2017-12-10T05:15:43.432Z,997.53
2017-12-10T05:16:43.439Z,997.59
2017-12-10T05:17:43.458Z,997.6
2017-12-10T05:18:43.462Z,997.52
2017-12-10T05:19:43.475Z,997.53
2017-12-10T05:20:43.490Z,997.46
2017-12-10T05:21:43.506Z,997.46
2017-12-10T05:22:43.530Z,997.44
2017-12-10T05:23:43.530Z,997.45
2017-12-10T05:24:43.547Z,997.4
2017-12-10T05:25:43.561Z,997.45
2017-12-10T05:26:43.575Z,997.42
2017-12-10T05:27:43.584Z,997.46
2017-12-10T05:28:43.597Z,997.26
2017-12-10T05:30:43.631Z,997.34
2017-12-10T05:31:43.638Z,997.39
2017-12-10T05:32:43.659Z,997.3
2017-12-10T05:33:43.676Z,997.26
2017-12-10T05:34:43.690Z,997.29
2017-12-10T05:35:43.703Z,997.27
2017-12-10T05:36:43.711Z,997.26
2017-12-10T05:37:43.727Z,997.22
2017-12-10T05:38:43.735Z,997.24
2017-12-10T05:39:43.758Z,997.13
2017-12-10T05:40:43.766Z,997.15
2017-12-10T05:41:43.775Z,997.15
2017-12-10T05:42:43.795Z,997.14
2017-12-10T05:43:43.810Z,997.15
2017-12-10T05:45:43.835Z,997.16
2017-12-10T05:46:43.844Z,997.11
2017-12-10T05:47:43.872Z,997.09
2017-12-10T05:48:43.875Z,997.13
2017-12-10T05:49:43.901Z,997.15
2017-12-10T05:50:43.909Z,997.2
2017-12-10T05:51:43.915Z,997.11
2017-12-10T05:52:43.933Z,997.05
2017-12-10T05:53:43.943Z,997.04
2017-12-10T05:54:43.965Z,997.05
2017-12-10T05:55:43.971Z,996.98
2017-12-10T05:56:43.981Z,997.07
2017-12-10T05:57:44.001Z,997.03
2017-12-10T05:58:44.008Z,997
2017-12-10T05:59:44.028Z,996.98
2017-12-10T06:00:44.046Z,996.96
2017-12-10T06:01:44.059Z,996.9
2017-12-10T06:02:44.067Z,996.89
2017-12-10T06:03:44.084Z,996.83
2017-12-10T06:04:44.099Z,996.88
2017-12-10T06:05:44.108Z,996.9
2017-12-10T06:06:44.128Z,996.87
2017-12-10T06:07:44.137Z,996.86
2017-12-10T06:08:44.145Z,996.85
2017-12-10T06:09:44.168Z,996.84
2017-12-10T06:10:44.172Z,996.86
2017-12-10T06:11:44.185Z,996.84
2017-12-10T06:12:44.204Z,996.82
2017-12-10T06:13:44.222Z,996.84
2017-12-10T06:14:44.230Z,996.79
2017-12-10T06:15:44.249Z,996.8
2017-12-10T06:17:44.276Z,996.73
2017-12-10T06:18:44.290Z,996.77
2017-12-10T06:19:44.299Z,996.72
2017-12-10T06:20:44.310Z,996.69
2017-12-10T06:21:44.321Z,996.66
2017-12-10T06:22:44.345Z,996.58
2017-12-10T06:23:44.356Z,996.55
2017-12-10T06:24:44.367Z,996.5
2017-12-10T06:25:44.375Z,996.49
2017-12-10T06:26:44.387Z,996.44
2017-12-10T06:27:44.423Z,996.45
2017-12-10T06:28:44.419Z,996.4
2017-12-10T06:29:44.440Z,996.4
2017-12-10T06:30:44.447Z,996.34
2017-12-10T06:31:44.462Z,996.33
2017-12-10T06:33:44.494Z,996.27
2017-12-10T06:34:44.507Z,996.25
2017-12-10T06:35:44.517Z,996.31
2017-12-10T06:36:44.530Z,996.24
2017-12-10T06:37:44.548Z,996.26
2017-12-10T06:38:44.556Z,996.2
2017-12-10T06:39:44.565Z,996.27
2017-12-10T06:40:44.583Z,996.27
2017-12-10T06:41:44.602Z,996.21
2017-12-10T06:42:44.610Z,996.21
2017-12-10T06:43:44.620Z,996.3
2017-12-10T06:44:44.634Z,996.23
2017-12-10T06:45:44.650Z,996.23
2017-12-10T06:46:44.660Z,996.24
2017-12-10T06:47:44.674Z,996.25
2017-12-10T06:49:44.706Z,996.13
2017-12-10T06:50:44.719Z,996.19
2017-12-10T06:51:44.729Z,996.15
2017-12-10T06:52:44.746Z,996.04
2017-12-10T06:53:44.766Z,996.09
2017-12-10T06:54:44.779Z,996.09
2017-12-10T06:55:44.803Z,996.01
2017-12-10T06:56:44.802Z,996
2017-12-10T06:57:44.817Z,996.02
2017-12-10T06:58:44.830Z,996
2017-12-10T06:59:44.847Z,996.01
2017-12-10T07:00:44.854Z,995.97
2017-12-10T07:01:44.868Z,995.93
2017-12-10T07:02:44.883Z,995.97
2017-12-10T07:03:44.894Z,995.93
2017-12-10T07:05:44.923Z,995.91
2017-12-10T07:06:44.933Z,995.94
2017-12-10T07:07:44.952Z,995.85
2017-12-10T07:08:44.964Z,995.89
2017-12-10T07:09:44.977Z,995.86
2017-12-10T07:10:44.996Z,995.91
2017-12-10T07:11:45.011Z,995.87
2017-12-10T07:12:45.014Z,995.92
2017-12-10T07:13:45.035Z,995.9
2017-12-10T07:14:45.047Z,995.87
2017-12-10T07:15:45.065Z,995.81
2017-12-10T07:16:45.073Z,995.85
2017-12-10T07:17:45.089Z,995.8
2017-12-10T07:18:45.107Z,995.82
2017-12-10T07:20:45.130Z,995.65
2017-12-10T07:21:45.137Z,995.61
2017-12-10T07:22:45.155Z,995.69
2017-12-10T07:23:45.176Z,995.64
2017-12-10T07:24:45.178Z,995.63
2017-12-10T07:25:45.203Z,995.63
2017-12-10T07:26:45.205Z,995.62
2017-12-10T07:27:45.230Z,995.58
2017-12-10T07:28:45.238Z,995.6
2017-12-10T07:29:45.252Z,995.53
2017-12-10T07:30:45.270Z,995.61
2017-12-10T07:31:45.284Z,995.56
2017-12-10T07:32:45.291Z,995.54
2017-12-10T07:33:45.301Z,995.56
2017-12-10T07:34:45.315Z,995.54
2017-12-10T07:35:45.339Z,995.45
2017-12-10T07:36:45.345Z,995.34
2017-12-10T07:37:45.362Z,995.39
2017-12-10T07:38:45.376Z,995.33
2017-12-10T07:39:45.392Z,995.34
2017-12-10T07:40:45.406Z,995.32
2017-12-10T07:41:45.414Z,995.27
2017-12-10T07:42:45.436Z,995.29
2017-12-10T07:43:45.437Z,995.23
2017-12-10T07:44:45.462Z,995.25
2017-12-10T07:45:45.466Z,995.28
2017-12-10T07:46:45.483Z,995.21
2017-12-10T07:47:45.497Z,995.23
2017-12-10T07:48:45.512Z,995.22
2017-12-10T07:49:45.524Z,995.19
2017-12-10T07:50:45.540Z,995.27
2017-12-10T07:52:45.565Z,995.15
2017-12-10T07:53:45.585Z,995.17
2017-12-10T07:54:45.592Z,995.23
2017-12-10T07:55:45.612Z,995.23
2017-12-10T07:56:45.616Z,995.2
2017-12-10T07:57:45.640Z,995.16
2017-12-10T07:58:45.654Z,995.15
2017-12-10T07:59:45.661Z,995.14
2017-12-10T08:00:45.682Z,995.07
2017-12-10T08:01:45.691Z,995.05
2017-12-10T08:02:45.698Z,995.06
2017-12-10T08:03:45.717Z,995
2017-12-10T08:04:45.735Z,995
2017-12-10T08:05:45.745Z,995.01
2017-12-10T08:06:45.754Z,994.97
2017-12-10T08:08:45.786Z,995
2017-12-10T08:09:45.799Z,994.98
2017-12-10T08:10:45.820Z,994.98
2017-12-10T08:11:45.828Z,994.94
2017-12-10T08:12:45.836Z,994.93
2017-12-10T08:13:45.857Z,994.95
2017-12-10T08:14:45.871Z,994.89
2017-12-10T08:15:45.879Z,994.88
2017-12-10T08:16:45.904Z,994.91
2017-12-10T08:17:45.907Z,994.89
2017-12-10T08:18:45.924Z,994.91
2017-12-10T08:19:45.945Z,994.9
2017-12-10T08:20:45.952Z,994.89
2017-12-10T08:21:45.966Z,994.92
2017-12-10T08:22:45.980Z,994.93
2017-12-10T08:24:46.007Z,994.85
2017-12-10T08:25:46.022Z,994.82
2017-12-10T08:26:46.044Z,994.76
2017-12-10T08:27:46.057Z,994.79
2017-12-10T08:28:46.066Z,994.74
2017-12-10T08:29:46.078Z,994.73
2017-12-10T08:30:46.088Z,994.74
2017-12-10T08:31:46.112Z,994.74
2017-12-10T08:32:46.125Z,994.68
2017-12-10T08:33:46.140Z,994.66
2017-12-10T08:34:46.153Z,994.65
2017-12-10T08:35:46.163Z,994.59
2017-12-10T08:36:46.175Z,994.62
2017-12-10T08:37:46.185Z,994.64
2017-12-10T08:38:46.203Z,994.67
2017-12-10T08:40:46.231Z,994.67
2017-12-10T08:41:46.241Z,994.6
2017-12-10T08:42:46.264Z,994.58
2017-12-10T08:43:46.275Z,994.57
2017-12-10T08:44:46.283Z,994.55
2017-12-10T08:45:46.307Z,994.56
2017-12-10T08:46:46.315Z,994.56
2017-12-10T08:47:46.335Z,994.56
2017-12-10T08:48:46.343Z,994.58
2017-12-10T08:49:46.352Z,994.62
2017-12-10T08:50:46.379Z,994.55
2017-12-10T08:51:46.392Z,994.46
2017-12-10T08:52:46.407Z,994.49
2017-12-10T08:53:46.411Z,994.47
2017-12-10T08:55:46.443Z,994.5
2017-12-10T08:56:46.453Z,994.44
2017-12-10T08:57:46.477Z,994.36
2017-12-10T08:58:46.489Z,994.44
2017-12-10T08:59:46.504Z,994.37
2017-12-10T09:00:46.509Z,994.36
2017-12-10T09:01:46.530Z,994.33
2017-12-10T09:02:46.546Z,994.32
2017-12-10T09:03:46.553Z,994.2
2017-12-10T09:04:46.572Z,994.26
2017-12-10T09:05:46.586Z,994.24
2017-12-10T09:06:46.601Z,994.23
2017-12-10T09:07:46.620Z,994.13
2017-12-10T09:08:46.625Z,994.09
2017-12-10T09:09:46.640Z,994.1
2017-12-10T09:10:46.660Z,994.02
2017-12-10T09:11:46.675Z,994.01
2017-12-10T09:12:46.694Z,994
2017-12-10T09:13:46.708Z,994.01
2017-12-10T09:14:46.712Z,993.93
2017-12-10T09:15:46.736Z,993.87
2017-12-10T09:16:46.752Z,993.86
2017-12-10T09:17:46.757Z,993.74
2017-12-10T09:18:46.775Z,993.8
2017-12-10T09:19:46.792Z,993.73
2017-12-10T09:20:46.804Z,993.75
2017-12-10T09:21:46.826Z,993.75
2017-12-10T09:22:46.842Z,993.73
2017-12-10T09:23:46.849Z,993.77
2017-12-10T09:24:46.866Z,993.73
2017-12-10T09:25:46.880Z,993.78
2017-12-10T09:27:46.908Z,993.65
2017-12-10T09:28:46.927Z,993.62
2017-12-10T09:29:46.934Z,993.6
2017-12-10T09:30:46.961Z,993.6
2017-12-10T09:31:46.965Z,993.55
2017-12-10T09:32:46.991Z,993.51
2017-12-10T09:33:46.998Z,993.57
2017-12-10T09:34:47.014Z,993.51
2017-12-10T09:35:47.029Z,993.42
2017-12-10T09:36:47.047Z,993.38
2017-12-10T09:37:47.059Z,993.38
2017-12-10T09:38:47.070Z,993.33
2017-12-10T09:39:47.095Z,993.4
2017-12-10T09:40:47.104Z,993.39
2017-12-10T09:41:47.127Z,993.43
2017-12-10T09:43:47.146Z,993.39
2017-12-10T09:44:47.167Z,993.38
2017-12-10T09:45:47.182Z,993.34
2017-12-10T09:46:47.191Z,993.3
2017-12-10T09:47:47.216Z,993.27
2017-12-10T09:48:47.221Z,993.23
2017-12-10T09:49:47.242Z,993.23
2017-12-10T09:50:47.256Z,993.16
2017-12-10T09:51:47.273Z,993.08
2017-12-10T09:52:47.281Z,993.06
2017-12-10T09:53:47.297Z,993
2017-12-10T09:54:47.312Z,993.09
2017-12-10T09:55:47.337Z,993.02
2017-12-10T09:56:47.343Z,993.02
2017-12-10T09:57:47.367Z,992.99
2017-12-10T09:59:47.397Z,992.93
2017-12-10T10:00:47.401Z,992.8
2017-12-10T10:01:47.423Z,992.87
2017-12-10T10:02:47.442Z,992.87
2017-12-10T10:03:47.452Z,992.82
2017-12-10T10:04:47.467Z,992.8
2017-12-10T10:05:47.487Z,992.78
2017-12-10T10:06:47.495Z,992.73
2017-12-10T10:07:47.512Z,992.73
2017-12-10T10:08:47.521Z,992.65
2017-12-10T10:09:47.541Z,992.7
2017-12-10T10:10:47.556Z,992.67
2017-12-10T10:11:47.576Z,992.68
2017-12-10T10:12:47.587Z,992.61
2017-12-10T10:13:47.594Z,992.59
2017-12-10T10:15:47.624Z,992.51
2017-12-10T10:16:47.643Z,992.43
2017-12-10T10:17:47.664Z,992.4
2017-12-10T10:18:47.674Z,992.31
2017-12-10T10:19:47.689Z,992.28
2017-12-10T10:20:47.703Z,992.28
2017-12-10T10:21:47.718Z,992.25
2017-12-10T10:22:47.728Z,992.17
2017-12-10T10:23:47.756Z,992.18
2017-12-10T10:24:47.760Z,992.17
2017-12-10T10:25:47.776Z,992.11
2017-12-10T10:26:47.792Z,992.14
2017-12-10T10:27:47.810Z,992.13
2017-12-10T10:28:47.821Z,992.02
2017-12-10T10:30:47.851Z,992.01
2017-12-10T10:31:47.858Z,991.91
2017-12-10T10:32:47.873Z,991.78
2017-12-10T10:33:47.894Z,991.73
2017-12-10T10:34:47.907Z,991.7
2017-12-10T10:35:47.927Z,991.68
2017-12-10T10:36:47.936Z,991.63
2017-12-10T10:37:48.000Z,991.57
2017-12-10T10:38:47.960Z,991.51
2017-12-10T10:39:47.982Z,991.51
2017-12-10T10:40:47.989Z,991.49
2017-12-10T10:41:48.011Z,991.54
2017-12-10T10:42:48.024Z,991.5
2017-12-10T10:43:48.038Z,991.46
2017-12-10T10:44:48.051Z,991.43
2017-12-10T10:45:48.066Z,991.38
2017-12-10T10:46:48.076Z,991.3
2017-12-10T10:47:48.090Z,991.32
2017-12-10T10:48:48.110Z,991.27
2017-12-10T10:49:48.126Z,991.25
2017-12-10T10:50:48.134Z,991.23
2017-12-10T10:51:48.202Z,991.16
2017-12-10T10:52:48.168Z,991.15
2017-12-10T10:53:48.183Z,991.13
2017-12-10T10:54:48.193Z,991.09
2017-12-10T10:55:48.208Z,991.11
2017-12-10T10:56:48.223Z,991.09
2017-12-10T10:57:48.244Z,991.03
2017-12-10T10:58:48.256Z,991.01
2017-12-10T10:59:48.271Z,990.93
2017-12-10T11:00:48.281Z,990.84
2017-12-10T11:02:48.311Z,990.82
2017-12-10T11:03:48.326Z,990.73
2017-12-10T11:04:48.340Z,990.72
2017-12-10T11:05:48.366Z,990.67
2017-12-10T11:06:48.370Z,990.64
2017-12-10T11:07:48.386Z,990.56
2017-12-10T11:08:48.404Z,990.54
2017-12-10T11:09:48.415Z,990.56
2017-12-10T11:10:48.440Z,990.53
2017-12-10T11:11:48.447Z,990.56
2017-12-10T11:12:48.469Z,990.45
2017-12-10T11:13:48.475Z,990.51
2017-12-10T11:14:48.489Z,990.47
2017-12-10T11:15:48.504Z,990.43
2017-12-10T11:16:48.525Z,990.37
2017-12-10T11:18:48.555Z,990.35
2017-12-10T11:19:48.569Z,990.3
2017-12-10T11:20:48.585Z,990.25
2017-12-10T11:21:48.595Z,990.2
2017-12-10T11:22:48.611Z,990.18
2017-12-10T11:23:48.632Z,990.2
2017-12-10T11:24:48.647Z,990.15
2017-12-10T11:25:48.664Z,990.12
2017-12-10T11:26:48.672Z,990.04
2017-12-10T11:27:48.805Z,990.04
2017-12-10T11:28:48.702Z,990.02
2017-12-10T11:29:48.711Z,990.03
2017-12-10T11:30:48.725Z,989.99
2017-12-10T11:31:48.740Z,989.93
2017-12-10T11:32:48.759Z,989.87
2017-12-10T11:34:48.788Z,989.87
2017-12-10T11:35:48.809Z,989.84
2017-12-10T11:36:48.824Z,989.79
2017-12-10T11:37:48.828Z,989.76
2017-12-10T11:38:48.843Z,989.77
2017-12-10T11:39:48.868Z,989.76
2017-12-10T11:40:48.879Z,989.7
2017-12-10T11:41:48.892Z,989.64
2017-12-10T11:42:48.906Z,989.63
2017-12-10T11:43:48.917Z,989.54
2017-12-10T11:44:48.936Z,989.53
2017-12-10T11:45:48.955Z,989.51
2017-12-10T11:46:48.965Z,989.49
2017-12-10T11:47:48.977Z,989.44
2017-12-10T11:48:48.993Z,989.44
2017-12-10T11:50:49.033Z,989.41
2017-12-10T11:51:49.042Z,989.35
2017-12-10T11:52:49.048Z,989.31
2017-12-10T11:53:49.073Z,989.26
2017-12-10T11:54:49.081Z,989.2
2017-12-10T11:55:49.102Z,989.15
2017-12-10T11:56:49.116Z,989.16
2017-12-10T11:57:49.121Z,989.05
2017-12-10T11:58:49.146Z,989.04
2017-12-10T11:59:49.160Z,988.99
2017-12-10T12:00:49.165Z,988.99
2017-12-10T12:01:49.225Z,988.99
2017-12-10T12:02:49.211Z,988.88
2017-12-10T12:03:49.216Z,988.83
2017-12-10T12:05:49.243Z,988.74
2017-12-10T12:06:49.257Z,988.73
2017-12-10T12:07:49.279Z,988.7
2017-12-10T12:08:49.291Z,988.59
2017-12-10T12:09:49.302Z,988.57
2017-12-10T12:10:49.317Z,988.59
2017-12-10T12:11:49.331Z,988.62
2017-12-10T12:12:49.346Z,988.6
2017-12-10T12:13:49.363Z,988.54
2017-12-10T12:14:49.368Z,988.57
2017-12-10T12:15:49.383Z,988.51
2017-12-10T12:16:49.408Z,988.47
2017-12-10T12:17:49.419Z,988.46
2017-12-10T12:18:49.430Z,988.41
2017-12-10T12:19:49.452Z,988.39
2017-12-10T12:20:49.467Z,988.4
2017-12-10T12:21:49.476Z,988.4
2017-12-10T12:22:49.487Z,988.33
2017-12-10T12:23:49.511Z,988.36
2017-12-10T12:24:49.524Z,988.27
2017-12-10T12:25:49.533Z,988.29
2017-12-10T12:26:49.548Z,988.21
2017-12-10T12:27:49.571Z,988.15
2017-12-10T12:28:49.584Z,988.14
2017-12-10T12:29:49.593Z,988.08
2017-12-10T12:30:49.607Z,988.06
2017-12-10T12:31:49.618Z,987.98
2017-12-10T12:32:49.636Z,987.94
2017-12-10T12:33:49.647Z,987.91
2017-12-10T12:34:49.668Z,987.85
2017-12-10T12:35:49.685Z,987.77
2017-12-10T12:37:49.710Z,987.72
2017-12-10T12:38:49.726Z,987.71
2017-12-10T12:39:49.738Z,987.67
2017-12-10T12:40:49.753Z,987.59
2017-12-10T12:41:49.774Z,987.56
2017-12-10T12:42:49.785Z,987.51
2017-12-10T12:43:49.798Z,987.41
2017-12-10T12:44:49.811Z,987.38
2017-12-10T12:45:49.833Z,987.39
2017-12-10T12:46:49.840Z,987.3
2017-12-10T12:47:49.858Z,987.33
2017-12-10T12:48:49.871Z,987.33
2017-12-10T12:49:49.880Z,987.34
2017-12-10T12:50:49.907Z,987.23
2017-12-10T12:51:49.913Z,987.26
2017-12-10T12:53:49.948Z,987.17
2017-12-10T12:54:49.951Z,987.15
2017-12-10T12:55:49.976Z,987.15
2017-12-10T12:56:49.984Z,987.09
2017-12-10T12:57:50.000Z,987.07
2017-12-10T12:58:50.019Z,987.07
2017-12-10T12:59:50.033Z,987.1
2017-12-10T13:00:50.044Z,987.08
2017-12-10T13:01:50.057Z,987.07
2017-12-10T13:02:50.073Z,987.05
2017-12-10T13:03:50.081Z,987.01
2017-12-10T13:04:50.099Z,987
2017-12-10T13:05:50.115Z,986.97
2017-12-10T13:06:50.133Z,986.97
2017-12-10T13:07:50.137Z,986.94
2017-12-10T13:09:50.177Z,986.84
2017-12-10T13:10:50.190Z,986.78
2017-12-10T13:11:50.200Z,986.76